Time;durP1;ratioP1;P1;durP2;ratioP2;P2;SDS_P1;SDS_P2;PMS_P1;PMS_P2;Temp;Humidity;BMP_temperature;BMP_pressure;BME280_temperature;BME280_humidity;BME280_pressure;Samples;Min_cycle;Max_cycle;Signal;HPM_P1;HPM_P2
2022/01/08 00:01:56;;;;;;;1.48;1.38;;;3.80;99.90;;;;;;5054935;28;20201;-60
2022/01/08 00:04:23;;;;;;;1.95;1.70;;;3.80;99.90;;;;;;5066085;28;20209;-67
2022/01/08 00:06:49;;;;;;;1.25;1.02;;;3.70;99.90;;;;;;5071507;28;20243;-67
2022/01/08 00:09:16;;;;;;;1.50;1.20;;;3.70;99.90;;;;;;5076719;28;20233;-66
2022/01/08 00:11:43;;;;;;;1.73;1.60;;;3.60;99.90;;;;;;5080876;28;20305;-68
2022/01/08 00:14:11;;;;;;;2.40;1.52;;;3.60;99.90;;;;;;5068180;28;20267;-67
2022/01/08 00:16:39;;;;;;;1.80;1.13;;;3.50;99.90;;;;;;5069849;28;20308;-66
2022/01/08 00:19:05;;;;;;;1.55;1.45;;;3.50;99.90;;;;;;5054237;28;20226;-66
2022/01/08 00:21:32;;;;;;;2.17;1.83;;;3.40;99.90;;;;;;5059126;28;20206;-66
2022/01/08 00:23:59;;;;;;;1.17;1.17;;;3.40;99.90;;;;;;5068140;28;20263;-67
2022/01/08 00:26:26;;;;;;;4.82;1.75;;;3.40;99.90;;;;;;5067626;28;20201;-65
2022/01/08 00:28:52;;;;;;;1.60;1.40;;;3.40;99.90;;;;;;5066979;28;20263;-66
2022/01/08 00:31:19;;;;;;;1.27;1.17;;;3.40;99.90;;;;;;5066509;28;20253;-66
2022/01/08 00:33:48;;;;;;;1.10;1.10;;;3.40;99.90;;;;;;5068014;28;20205;-66
2022/01/08 00:36:15;;;;;;;1.20;1.00;;;3.30;99.90;;;;;;5065139;28;20289;-66
2022/01/08 00:38:42;;;;;;;1.50;1.40;;;3.30;99.90;;;;;;5067609;28;20294;-65
2022/01/08 00:41:08;;;;;;;1.30;1.20;;;3.30;99.90;;;;;;5060920;28;20350;-66
2022/01/08 00:43:35;;;;;;;1.80;1.70;;;3.40;99.90;;;;;;5068307;28;20250;-66
2022/01/08 00:46:02;;;;;;;1.20;1.10;;;3.30;99.90;;;;;;5067879;28;20209;-65
2022/01/08 00:48:29;;;;;;;1.55;1.23;;;3.30;99.90;;;;;;5067345;28;20233;-67
2022/01/08 00:50:57;;;;;;;1.17;0.95;;;3.40;99.90;;;;;;5067857;28;20278;-66
2022/01/08 00:53:23;;;;;;;1.00;0.88;;;3.40;99.90;;;;;;5058356;28;20213;-67
2022/01/08 00:55:50;;;;;;;1.50;0.88;;;3.30;99.90;;;;;;5067729;28;20659;-67
2022/01/08 00:58:17;;;;;;;3.65;1.50;;;3.30;99.90;;;;;;5060696;28;20471;-66
2022/01/08 01:00:43;;;;;;;2.05;1.33;;;3.30;99.90;;;;;;5073883;28;20272;-69
2022/01/08 01:03:10;;;;;;;0.70;0.70;;;3.20;99.90;;;;;;5077619;28;20225;-67
2022/01/08 01:05:37;;;;;;;2.05;1.42;;;3.20;99.90;;;;;;5081732;28;20198;-67
2022/01/08 01:08:07;;;;;;;1.30;1.20;;;3.20;99.90;;;;;;5082609;28;20275;-68
2022/01/08 01:10:33;;;;;;;0.80;0.80;;;3.20;99.90;;;;;;5082648;28;20343;-72
2022/01/08 01:13:00;;;;;;;1.60;1.00;;;3.20;99.90;;;;;;5068643;28;20229;-70
2022/01/08 01:15:27;;;;;;;2.15;0.98;;;3.10;99.90;;;;;;5079706;28;20259;-69
2022/01/08 01:17:54;;;;;;;1.65;1.25;;;3.10;99.90;;;;;;5077835;28;20225;-70
2022/01/08 01:20:21;;;;;;;0.77;0.77;;;3.10;99.90;;;;;;5077980;28;20583;-71
2022/01/08 01:22:55;;;;;;;1.27;1.13;;;3.20;99.90;;;;;;5064099;28;20225;-70
2022/01/08 01:25:28;;;;;;;3.65;2.25;;;3.10;99.90;;;;;;5066055;28;20518;-69
2022/01/08 01:28:05;;;;;;;1.00;0.95;;;3.10;99.90;;;;;;5068389;28;20730;-70
2022/01/08 01:41:46;;;;;;;2.50;1.50;;;3.20;99.90;;;;;;5064124;28;20201;-70
2022/01/08 01:47:03;;;;;;;1.13;1.02;;;3.20;99.90;;;;;;5050885;28;20323;-70
2022/01/08 01:49:31;;;;;;;6.40;1.27;;;3.20;99.90;;;;;;5062323;28;20220;-70
2022/01/08 01:51:59;;;;;;;3.05;1.25;;;3.20;99.90;;;;;;5061282;28;20206;-69
2022/01/08 01:54:26;;;;;;;1.40;1.30;;;3.20;99.90;;;;;;5062315;28;20252;-69
2022/01/08 01:56:55;;;;;;;1.30;1.20;;;3.20;99.90;;;;;;5066772;28;20213;-70
2022/01/08 01:59:22;;;;;;;1.10;1.00;;;3.20;99.90;;;;;;5063202;28;20228;-70
2022/01/08 02:01:49;;;;;;;0.70;0.70;;;3.10;99.90;;;;;;5062603;28;20194;-69
2022/01/08 02:04:16;;;;;;;3.55;1.70;;;3.10;99.90;;;;;;5062914;28;20243;-70
2022/01/08 02:06:42;;;;;;;1.70;1.60;;;3.00;99.90;;;;;;5064679;28;20255;-69
2022/01/08 02:09:09;;;;;;;1.60;1.40;;;2.90;99.90;;;;;;5060166;28;20482;-69
2022/01/08 02:11:58;;;;;;;1.35;1.25;;;2.80;99.90;;;;;;5064005;28;20269;-69
2022/01/08 02:14:26;;;;;;;1.00;1.00;;;2.70;99.90;;;;;;5058598;28;20213;-69
2022/01/08 02:16:52;;;;;;;1.15;1.15;;;2.70;99.90;;;;;;5064280;28;20292;-70
2022/01/08 02:19:19;;;;;;;2.28;1.65;;;2.60;99.90;;;;;;5065605;28;20282;-70
2022/01/08 02:21:50;;;;;;;1.27;1.27;;;2.50;99.90;;;;;;5067622;28;20201;-70
2022/01/08 02:24:17;;;;;;;0.88;0.80;;;2.40;99.90;;;;;;5064137;28;20221;-70
2022/01/08 02:26:44;;;;;;;1.33;1.23;;;2.30;99.90;;;;;;5065013;28;20213;-70
2022/01/08 02:29:12;;;;;;;4.43;1.10;;;2.20;99.90;;;;;;5057931;28;20237;-70
2022/01/08 02:31:39;;;;;;;1.60;1.50;;;2.20;99.90;;;;;;5064709;28;20260;-70
2022/01/08 02:34:07;;;;;;;2.60;1.10;;;2.10;99.90;;;;;;5069257;28;20262;-70
2022/01/08 02:36:34;;;;;;;1.20;1.10;;;2.10;99.90;;;;;;5068888;28;20197;-70
2022/01/08 02:39:02;;;;;;;2.03;1.10;;;2.10;99.90;;;;;;5054528;28;20225;-69
2022/01/08 02:41:29;;;;;;;1.67;1.50;;;2.10;99.90;;;;;;5066026;28;20728;-69
2022/01/08 02:43:56;;;;;;;2.63;2.33;;;2.10;99.90;;;;;;5066377;28;20659;-69
2022/01/08 02:46:23;;;;;;;1.65;1.55;;;2.10;99.90;;;;;;5066121;28;20206;-69
2022/01/08 02:48:49;;;;;;;1.45;1.25;;;2.10;99.90;;;;;;5065009;28;20302;-70
2022/01/08 02:51:16;;;;;;;6.10;1.60;;;2.10;99.90;;;;;;5063834;28;20304;-69
2022/01/08 02:53:43;;;;;;;1.23;1.17;;;2.10;99.90;;;;;;5062566;28;20247;-70
2022/01/08 02:56:11;;;;;;;1.50;1.40;;;2.10;99.90;;;;;;5051769;28;20205;-69
2022/01/08 02:58:38;;;;;;;2.50;1.83;;;2.10;99.90;;;;;;5056425;28;20236;-70
2022/01/08 03:01:04;;;;;;;1.23;1.10;;;2.10;99.90;;;;;;5064546;28;20236;-69
2022/01/08 03:03:31;;;;;;;1.98;1.77;;;2.10;99.90;;;;;;5061663;28;20217;-71
2022/01/08 03:05:58;;;;;;;2.30;2.15;;;2.10;99.90;;;;;;5067232;28;20205;-70
2022/01/08 03:08:26;;;;;;;1.40;1.25;;;2.00;99.90;;;;;;5074358;28;20251;-71
2022/01/08 03:10:53;;;;;;;2.03;1.83;;;1.90;99.90;;;;;;5072933;28;20598;-70
2022/01/08 03:13:21;;;;;;;1.40;1.30;;;1.90;99.90;;;;;;5067627;28;20263;-68
2022/01/08 03:15:48;;;;;;;2.15;1.48;;;2.00;99.90;;;;;;5067742;28;20266;-66
2022/01/08 03:18:16;;;;;;;5.80;2.25;;;1.90;99.90;;;;;;5063944;28;20244;-66
2022/01/08 03:20:48;;;;;;;1.45;1.35;;;1.90;99.90;;;;;;5063133;28;20231;-66
2022/01/08 03:23:16;;;;;;;1.55;1.00;;;1.90;99.90;;;;;;5060874;28;20235;-69
2022/01/08 03:25:43;;;;;;;1.80;1.70;;;1.80;99.90;;;;;;5060984;28;20294;-66
2022/01/08 03:28:10;;;;;;;1.83;1.73;;;1.80;99.90;;;;;;5063025;28;20306;-66
2022/01/08 03:30:39;;;;;;;1.65;1.55;;;1.80;99.90;;;;;;5064347;28;20294;-66
2022/01/08 03:33:06;;;;;;;2.20;2.10;;;1.80;99.90;;;;;;5063249;28;20643;-67
2022/01/08 03:35:33;;;;;;;8.93;1.88;;;1.80;99.90;;;;;;5064077;28;20214;-66
2022/01/08 03:38:00;;;;;;;1.60;1.50;;;1.70;99.90;;;;;;5065304;28;20308;-66
2022/01/08 03:40:26;;;;;;;1.77;1.65;;;1.80;99.90;;;;;;5064288;28;20268;-66
2022/01/08 03:42:53;;;;;;;2.85;1.73;;;1.90;99.90;;;;;;5064899;28;20298;-66
2022/01/08 03:45:20;;;;;;;3.60;2.22;;;2.00;99.90;;;;;;5059040;28;20216;-66
2022/01/08 03:48:07;;;;;;;3.45;1.50;;;2.10;99.90;;;;;;5067473;28;20295;-66
2022/01/08 03:50:34;;;;;;;1.80;1.70;;;2.00;99.90;;;;;;5055373;28;20293;-66
2022/01/08 03:53:01;;;;;;;3.45;2.72;;;2.10;99.90;;;;;;5066887;28;20201;-67
2022/01/08 03:55:28;;;;;;;5.88;3.40;;;2.00;99.90;;;;;;5068482;28;20246;-67
2022/01/08 03:57:54;;;;;;;2.40;2.20;;;2.00;99.90;;;;;;5068155;28;20259;-66
2022/01/08 04:00:21;;;;;;;1.67;1.58;;;2.00;99.90;;;;;;5065833;28;20265;-66
2022/01/08 04:02:51;;;;;;;4.75;3.10;;;2.00;99.90;;;;;;5059591;28;20219;-66
2022/01/08 04:05:18;;;;;;;4.75;3.20;;;2.00;99.90;;;;;;5060676;28;20220;-66
2022/01/08 04:07:44;;;;;;;4.47;2.60;;;1.90;99.90;;;;;;5058693;28;20225;-65
2022/01/08 04:10:11;;;;;;;3.25;2.92;;;1.90;99.90;;;;;;5064575;28;20197;-66
2022/01/08 04:12:42;;;;;;;3.95;2.95;;;1.90;99.90;;;;;;5064924;28;20197;-66
2022/01/08 04:15:30;;;;;;;8.20;3.60;;;1.90;99.90;;;;;;5067435;28;20377;-66
2022/01/08 04:17:57;;;;;;;5.53;3.15;;;1.90;99.90;;;;;;5059548;28;20233;-66
2022/01/08 04:20:24;;;;;;;9.88;4.10;;;1.80;99.90;;;;;;5067140;28;20197;-66
2022/01/08 04:22:51;;;;;;;4.55;3.95;;;1.80;99.90;;;;;;5067625;28;20198;-66
2022/01/08 04:25:20;;;;;;;8.80;5.30;;;1.70;99.90;;;;;;5066541;28;20221;-67
2022/01/08 04:27:47;;;;;;;4.55;3.88;;;1.80;99.90;;;;;;5067796;28;20279;-66
2022/01/08 04:30:14;;;;;;;3.47;3.25;;;1.80;99.90;;;;;;5061139;28;20212;-66
2022/01/08 04:32:41;;;;;;;5.55;4.50;;;1.70;99.90;;;;;;5067584;28;20205;-66
2022/01/08 04:35:09;;;;;;;4.13;3.28;;;1.70;99.90;;;;;;5066968;28;20816;-66
2022/01/08 04:37:36;;;;;;;4.75;3.90;;;1.70;99.90;;;;;;5066355;28;20217;-66
2022/01/08 04:40:04;;;;;;;8.50;5.47;;;1.70;99.90;;;;;;5066647;28;20667;-67
2022/01/08 04:42:30;;;;;;;4.82;4.30;;;1.70;99.90;;;;;;5066026;28;20212;-67
2022/01/08 04:44:57;;;;;;;4.43;4.03;;;1.80;99.90;;;;;;5067588;28;20228;-67
2022/01/08 04:47:24;;;;;;;5.65;4.60;;;1.80;99.90;;;;;;5067448;28;20204;-66
2022/01/08 04:49:50;;;;;;;7.85;5.10;;;1.80;99.90;;;;;;5067605;28;20218;-66
2022/01/08 04:52:18;;;;;;;6.68;6.05;;;1.70;99.90;;;;;;5062571;28;20198;-67
2022/01/08 04:54:45;;;;;;;7.20;4.43;;;1.70;99.90;;;;;;5062720;28;20194;-66
2022/01/08 04:57:12;;;;;;;6.88;6.20;;;1.70;99.90;;;;;;5054526;28;20264;-66
2022/01/08 04:59:38;;;;;;;7.20;6.50;;;1.70;99.90;;;;;;5065522;28;20259;-66
2022/01/08 05:02:06;;;;;;;6.13;4.82;;;1.70;99.90;;;;;;5062556;28;20209;-66
2022/01/08 05:04:33;;;;;;;4.88;4.07;;;1.70;99.90;;;;;;5066745;28;20306;-66
2022/01/08 05:06:59;;;;;;;4.60;3.95;;;1.70;99.90;;;;;;5066249;28;20282;-66
2022/01/08 05:09:27;;;;;;;6.00;4.40;;;1.60;99.90;;;;;;5065374;28;20294;-66
2022/01/08 05:11:54;;;;;;;10.45;6.45;;;1.70;99.90;;;;;;5061793;28;20201;-66
2022/01/08 05:14:21;;;;;;;7.95;6.03;;;1.70;99.90;;;;;;5065148;28;20235;-66
2022/01/08 05:16:50;;;;;;;8.15;5.35;;;1.60;99.90;;;;;;5066268;28;20198;-66
2022/01/08 05:19:24;;;;;;;7.00;6.40;;;1.60;99.90;;;;;;5063133;28;20226;-66
2022/01/08 05:21:57;;;;;;;6.85;6.03;;;1.60;99.90;;;;;;5065868;28;20210;-66
2022/01/08 05:24:23;;;;;;;7.40;6.72;;;1.60;99.90;;;;;;5061201;28;20300;-66
2022/01/08 05:26:51;;;;;;;7.10;6.28;;;1.60;99.90;;;;;;5063878;28;20205;-66
2022/01/08 05:29:18;;;;;;;8.77;6.18;;;1.60;99.90;;;;;;5066219;28;20225;-66
2022/01/08 05:31:45;;;;;;;6.07;5.55;;;1.60;99.90;;;;;;5066833;28;20311;-66
2022/01/08 05:34:11;;;;;;;7.57;5.15;;;1.60;99.90;;;;;;5063469;28;20224;-66
2022/01/08 05:36:38;;;;;;;5.53;4.95;;;1.50;99.90;;;;;;5063646;28;20213;-66
2022/01/08 05:39:05;;;;;;;11.77;6.13;;;1.50;99.90;;;;;;5059103;28;20323;-65
2022/01/08 05:41:31;;;;;;;5.10;4.63;;;1.50;99.90;;;;;;5064150;28;20205;-66
2022/01/08 05:43:59;;;;;;;5.25;4.15;;;1.50;99.90;;;;;;5058034;28;20221;-66
2022/01/08 05:46:26;;;;;;;5.80;4.97;;;1.40;99.90;;;;;;5060416;28;20245;-66
2022/01/08 05:48:53;;;;;;;7.38;6.15;;;1.40;99.90;;;;;;5061865;28;20942;-66
2022/01/08 05:51:19;;;;;;;5.22;4.72;;;1.40;99.90;;;;;;5061683;28;20198;-66
2022/01/08 05:53:46;;;;;;;10.45;5.20;;;1.40;99.90;;;;;;5065726;28;20221;-66
2022/01/08 05:56:13;;;;;;;7.72;6.15;;;1.40;99.90;;;;;;5069339;28;20263;-66
2022/01/08 05:58:40;;;;;;;5.20;4.75;;;1.40;99.90;;;;;;5065162;28;20741;-66
2022/01/08 06:01:08;;;;;;;5.20;4.18;;;1.30;99.90;;;;;;5057244;28;20301;-66
2022/01/08 06:03:35;;;;;;;8.07;5.57;;;1.30;99.90;;;;;;5066477;28;20208;-66
2022/01/08 06:06:01;;;;;;;6.97;5.63;;;1.40;99.90;;;;;;5065679;28;20274;-66
2022/01/08 06:08:28;;;;;;;13.63;5.35;;;1.40;99.90;;;;;;5066034;28;20251;-66
2022/01/08 06:10:55;;;;;;;10.07;5.25;;;1.40;99.90;;;;;;5061920;28;20197;-66
2022/01/08 06:13:22;;;;;;;4.30;3.90;;;1.40;99.90;;;;;;5063244;28;20220;-68
2022/01/08 06:15:48;;;;;;;4.35;3.92;;;1.40;99.90;;;;;;5072758;28;20198;-66
2022/01/08 06:18:16;;;;;;;6.03;5.20;;;1.40;99.90;;;;;;5073369;28;20283;-67
2022/01/08 06:20:43;;;;;;;5.65;4.65;;;1.50;99.90;;;;;;5074742;28;20198;-65
2022/01/08 06:23:10;;;;;;;5.93;5.15;;;1.50;99.90;;;;;;5076629;28;20590;-66
2022/01/08 06:25:36;;;;;;;10.80;5.40;;;1.50;99.90;;;;;;5066305;28;20229;-66
2022/01/08 06:28:03;;;;;;;4.40;3.97;;;1.50;99.90;;;;;;5068484;28;20228;-67
2022/01/08 06:30:30;;;;;;;6.53;4.88;;;1.50;99.90;;;;;;5065055;28;20572;-68
2022/01/08 06:32:56;;;;;;;7.55;4.38;;;1.40;99.90;;;;;;5067850;28;20208;-65
2022/01/08 06:35:25;;;;;;;8.90;5.68;;;1.40;99.90;;;;;;5066128;28;20200;-65
2022/01/08 06:37:51;;;;;;;8.70;5.18;;;1.50;99.90;;;;;;5066369;28;20227;-65
2022/01/08 06:40:18;;;;;;;6.68;4.80;;;1.50;99.90;;;;;;5060184;28;20209;-66
2022/01/08 06:42:45;;;;;;;4.35;3.95;;;1.40;99.90;;;;;;5058074;28;20205;-66
2022/01/08 06:45:11;;;;;;;7.40;6.70;;;1.40;99.90;;;;;;5062497;28;20225;-66
2022/01/08 06:47:38;;;;;;;4.80;4.25;;;1.50;99.90;;;;;;5064218;28;20278;-65
2022/01/08 06:50:06;;;;;;;4.50;3.85;;;1.50;99.90;;;;;;5062507;28;20573;-66
2022/01/08 06:52:34;;;;;;;5.32;4.93;;;1.40;99.90;;;;;;5065523;28;20663;-65
2022/01/08 06:55:01;;;;;;;4.72;4.32;;;1.40;99.90;;;;;;5064809;28;20259;-65
2022/01/08 06:57:28;;;;;;;6.40;3.90;;;1.30;99.90;;;;;;5060665;28;20250;-65
2022/01/08 06:59:54;;;;;;;6.78;6.18;;;1.20;99.90;;;;;;5064097;28;20225;-65
2022/01/08 07:02:21;;;;;;;12.00;5.57;;;1.20;99.90;;;;;;5063077;28;20283;-65
2022/01/08 07:04:48;;;;;;;6.28;4.65;;;1.30;99.90;;;;;;5065440;28;20233;-67
2022/01/08 07:07:14;;;;;;;6.43;5.63;;;1.20;99.90;;;;;;5058347;28;20205;-66
2022/01/08 07:09:42;;;;;;;7.30;6.05;;;1.20;99.90;;;;;;5060593;28;20209;-65
2022/01/08 07:12:09;;;;;;;6.75;4.50;;;1.30;99.90;;;;;;5060649;28;20311;-65
2022/01/08 07:14:36;;;;;;;8.25;6.55;;;1.20;99.90;;;;;;5070571;28;20293;-70
2022/01/08 07:17:03;;;;;;;9.18;5.80;;;1.30;99.90;;;;;;5079916;28;20318;-68
2022/01/08 07:19:30;;;;;;;5.85;4.18;;;1.30;99.90;;;;;;5082138;28;20681;-68
2022/01/08 07:21:57;;;;;;;9.70;4.93;;;1.30;99.90;;;;;;5082774;28;20197;-66
2022/01/08 07:24:23;;;;;;;7.93;5.30;;;1.30;99.90;;;;;;5080857;28;20225;-65
2022/01/08 07:26:51;;;;;;;4.47;4.18;;;1.30;99.90;;;;;;5070312;28;20201;-67
2022/01/08 07:29:18;;;;;;;15.63;6.38;;;1.30;99.90;;;;;;5069750;28;20302;-66
2022/01/08 07:31:45;;;;;;;5.95;5.35;;;1.30;99.90;;;;;;5070421;28;20516;-68
2022/01/08 07:34:11;;;;;;;9.43;4.65;;;1.30;99.90;;;;;;5074453;28;20235;-66
2022/01/08 07:36:38;;;;;;;6.83;5.53;;;1.30;99.90;;;;;;5068860;28;20473;-67
2022/01/08 07:39:05;;;;;;;7.47;5.75;;;1.30;99.90;;;;;;5068867;28;20840;-67
2022/01/08 07:41:31;;;;;;;5.15;3.60;;;1.30;99.90;;;;;;5068714;28;20259;-66
2022/01/08 07:43:59;;;;;;;5.50;4.88;;;1.40;99.90;;;;;;5069034;28;20201;-67
2022/01/08 07:46:26;;;;;;;4.47;3.60;;;1.30;99.90;;;;;;5060056;28;20221;-66
2022/01/08 07:48:53;;;;;;;6.85;4.85;;;1.50;99.90;;;;;;5068013;28;20295;-66
2022/01/08 07:51:19;;;;;;;5.15;4.43;;;1.50;99.90;;;;;;5067511;28;20218;-68
2022/01/08 07:53:46;;;;;;;7.65;4.40;;;1.50;99.90;;;;;;5060918;28;20198;-67
2022/01/08 07:56:13;;;;;;;8.43;4.00;;;1.50;99.90;;;;;;5062737;28;20194;-67
2022/01/08 07:58:39;;;;;;;10.05;6.53;;;1.60;99.90;;;;;;5059089;28;20233;-67
2022/01/08 08:01:07;;;;;;;9.73;5.07;;;1.60;99.90;;;;;;5058289;28;20265;-66
2022/01/08 08:03:34;;;;;;;5.78;4.85;;;1.60;99.90;;;;;;5063468;28;20216;-67
2022/01/08 08:06:01;;;;;;;7.40;5.53;;;1.70;99.90;;;;;;5066317;28;20221;-66
2022/01/08 08:08:28;;;;;;;7.65;4.28;;;1.80;99.90;;;;;;5065431;28;20299;-67
2022/01/08 08:10:54;;;;;;;4.18;3.67;;;1.90;99.90;;;;;;5057936;28;20644;-67
2022/01/08 08:13:22;;;;;;;6.63;3.80;;;2.00;99.90;;;;;;5068499;28;20205;-65
2022/01/08 08:15:49;;;;;;;12.10;4.53;;;2.10;99.90;;;;;;5068495;28;20282;-68
2022/01/08 08:18:17;;;;;;;6.38;5.70;;;2.20;99.90;;;;;;5067717;28;20303;-66
2022/01/08 08:20:44;;;;;;;9.00;4.90;;;2.30;99.90;;;;;;5067599;28;20651;-65
2022/01/08 08:23:11;;;;;;;5.25;4.35;;;2.30;99.90;;;;;;5068189;28;20201;-65
2022/01/08 08:25:38;;;;;;;6.05;5.53;;;2.40;99.90;;;;;;5067092;28;20229;-65
2022/01/08 08:28:06;;;;;;;6.35;4.53;;;2.40;99.90;;;;;;5063143;28;20222;-67
2022/01/08 08:30:33;;;;;;;7.45;2.85;;;2.40;99.90;;;;;;5067565;28;20205;-65
2022/01/08 08:33:00;;;;;;;5.90;4.22;;;2.40;99.90;;;;;;5063361;28;20593;-66
2022/01/08 08:35:28;;;;;;;7.70;4.47;;;2.50;99.90;;;;;;5062108;28;20258;-64
2022/01/08 08:37:55;;;;;;;6.55;3.80;;;2.60;99.90;;;;;;5065137;28;20233;-66
2022/01/08 08:40:22;;;;;;;4.65;4.15;;;2.70;99.90;;;;;;5067910;28;20255;-66
2022/01/08 08:42:49;;;;;;;4.88;3.92;;;2.90;99.90;;;;;;5065322;28;20400;-66
2022/01/08 08:45:15;;;;;;;5.95;4.40;;;3.00;99.90;;;;;;5068591;28;20713;-66
2022/01/08 08:47:42;;;;;;;5.90;3.40;;;3.10;99.90;;;;;;5068235;28;20705;-66
2022/01/08 08:50:11;;;;;;;4.57;3.40;;;3.30;99.90;;;;;;5066287;28;20289;-65
2022/01/08 08:52:39;;;;;;;3.38;3.17;;;3.30;99.90;;;;;;5064655;28;20286;-65
2022/01/08 08:55:07;;;;;;;5.47;4.07;;;3.30;99.90;;;;;;5057378;28;20224;-65
2022/01/08 08:57:35;;;;;;;4.63;4.10;;;3.40;99.90;;;;;;5071082;28;20218;-65
2022/01/08 09:00:01;;;;;;;7.55;4.15;;;3.50;99.90;;;;;;5076076;28;20224;-66
2022/01/08 09:02:28;;;;;;;7.20;3.03;;;3.60;99.90;;;;;;5068833;28;20205;-65
2022/01/08 09:04:55;;;;;;;2.83;2.55;;;3.70;99.90;;;;;;5078039;28;20225;-65
2022/01/08 09:07:21;;;;;;;4.18;3.78;;;3.70;99.90;;;;;;5078420;28;20211;-66
2022/01/08 09:09:49;;;;;;;5.20;4.05;;;3.60;99.90;;;;;;5074693;28;20216;-65
2022/01/08 09:12:16;;;;;;;4.13;2.60;;;3.60;99.90;;;;;;5068963;28;20194;-65
2022/01/08 09:14:44;;;;;;;4.15;3.17;;;3.60;99.90;;;;;;5066020;28;20255;-65
2022/01/08 09:17:13;;;;;;;3.42;2.67;;;3.50;99.90;;;;;;5086123;22;20524;-65
2022/01/08 09:19:40;;;;;;;3.45;2.40;;;3.50;99.90;;;;;;5080675;28;20198;-64
2022/01/08 09:22:07;;;;;;;5.45;2.25;;;3.40;99.90;;;;;;5088595;28;20208;-64
2022/01/08 09:24:36;;;;;;;4.88;4.20;;;3.50;99.90;;;;;;5088987;28;20337;-65
2022/01/08 09:27:05;;;;;;;3.53;3.30;;;3.50;99.90;;;;;;5089142;28;20274;-64
2022/01/08 09:29:31;;;;;;;9.57;4.15;;;3.60;99.90;;;;;;5089831;28;20262;-64
2022/01/08 09:31:58;;;;;;;4.82;2.58;;;3.70;99.90;;;;;;5089946;28;20262;-64
2022/01/08 09:34:25;;;;;;;4.65;2.75;;;3.90;99.90;;;;;;5075492;28;20205;-65
2022/01/08 09:36:51;;;;;;;15.52;2.67;;;4.10;99.90;;;;;;5085994;28;20208;-64
2022/01/08 09:39:19;;;;;;;4.10;3.30;;;4.30;99.90;;;;;;5088798;28;20280;-64
2022/01/08 09:41:45;;;;;;;7.47;3.78;;;4.40;99.90;;;;;;5088701;28;20201;-64
2022/01/08 09:44:14;;;;;;;3.10;2.65;;;4.40;99.90;;;;;;5088429;28;20261;-65
2022/01/08 09:46:41;;;;;;;2.67;2.47;;;4.60;99.90;;;;;;5088221;28;20220;-65
2022/01/08 09:49:08;;;;;;;2.63;2.42;;;4.50;99.90;;;;;;5089285;28;20229;-64
2022/01/08 09:51:35;;;;;;;3.83;2.85;;;4.60;99.90;;;;;;5088413;28;20192;-64
2022/01/08 09:54:02;;;;;;;2.63;2.03;;;4.60;99.90;;;;;;5087296;28;20208;-66
2022/01/08 09:56:31;;;;;;;3.58;1.80;;;4.70;99.90;;;;;;5088256;28;20211;-66
2022/01/08 09:58:58;;;;;;;2.90;2.70;;;4.70;99.90;;;;;;5084333;28;20787;-65
2022/01/08 10:01:28;;;;;;;5.25;1.98;;;4.70;99.90;;;;;;5087328;28;20926;-64
2022/01/08 10:03:56;;;;;;;2.08;1.88;;;4.60;99.90;;;;;;5080540;28;20254;-66
2022/01/08 10:06:23;;;;;;;1.77;1.50;;;4.60;99.90;;;;;;5084287;28;20270;-64
2022/01/08 10:08:51;;;;;;;3.05;1.95;;;4.50;99.90;;;;;;5082770;28;20702;-65
2022/01/08 10:11:17;;;;;;;4.53;1.67;;;4.50;99.90;;;;;;5089370;28;20203;-65
2022/01/08 10:13:46;;;;;;;1.55;1.45;;;4.40;99.90;;;;;;5086589;28;20756;-67
2022/01/08 10:19:01;;;;;;;2.65;2.05;;;4.40;99.90;;;;;;5085490;28;20242;-70
2022/01/08 10:21:29;;;;;;;1.80;1.63;;;4.30;99.90;;;;;;5083792;28;20236;-66
2022/01/08 10:23:58;;;;;;;2.63;1.40;;;4.30;99.90;;;;;;5078707;28;20204;-65
2022/01/08 10:26:31;;;;;;;3.92;2.03;;;4.30;99.90;;;;;;5088800;28;20294;-64
2022/01/08 10:28:58;;;;;;;1.75;1.30;;;4.30;99.90;;;;;;5084687;28;20308;-64
2022/01/08 10:31:27;;;;;;;2.22;1.42;;;4.40;99.90;;;;;;5078130;28;20213;-65
2022/01/08 10:33:55;;;;;;;1.52;1.42;;;4.30;99.90;;;;;;5088201;28;20890;-65
2022/01/08 10:36:26;;;;;;;1.70;1.60;;;4.40;99.90;;;;;;5085939;28;20197;-64
2022/01/08 10:38:55;;;;;;;2.05;1.42;;;4.30;99.90;;;;;;5084750;28;20274;-65
2022/01/08 10:41:22;;;;;;;1.48;1.02;;;4.30;99.90;;;;;;5088304;28;20204;-65
2022/01/08 10:44:04;;;;;;;1.58;1.30;;;4.30;99.90;;;;;;5087476;28;20246;-65
2022/01/08 10:46:31;;;;;;;1.98;1.40;;;4.30;99.90;;;;;;5084557;28;20213;-66
2022/01/08 10:48:57;;;;;;;1.77;1.65;;;4.30;99.90;;;;;;5087730;28;20767;-66
2022/01/08 10:51:27;;;;;;;3.53;1.40;;;4.30;99.90;;;;;;5086488;28;20204;-65
2022/01/08 10:54:00;;;;;;;1.75;1.65;;;4.40;99.90;;;;;;5088583;28;20254;-65
2022/01/08 10:56:28;;;;;;;1.38;1.10;;;4.50;99.90;;;;;;5087526;28;20251;-66
2022/01/08 10:59:01;;;;;;;3.65;2.40;;;4.60;99.90;;;;;;5084583;28;20224;-64
2022/01/08 11:01:46;;;;;;;2.50;2.30;;;4.70;99.90;;;;;;5085140;28;20577;-66
2022/01/08 11:04:14;;;;;;;2.47;1.30;;;4.90;99.90;;;;;;5087831;28;20201;-65
2022/01/08 11:06:54;;;;;;;2.22;1.65;;;5.00;99.90;;;;;;5087479;28;20455;-64
2022/01/08 11:09:21;;;;;;;3.60;2.20;;;5.20;99.90;;;;;;5088724;28;20200;-65
2022/01/08 11:11:49;;;;;;;2.15;1.95;;;5.30;99.90;;;;;;5083702;28;20720;-66
2022/01/08 11:14:44;;;;;;;2.90;1.95;;;5.30;99.90;;;;;;5086333;28;20207;-65
2022/01/08 11:17:12;;;;;;;1.73;1.63;;;5.30;99.90;;;;;;5081574;28;20228;-66
2022/01/08 11:19:43;;;;;;;3.13;1.83;;;5.20;99.90;;;;;;5074507;28;20208;-66
2022/01/08 11:22:13;;;;;;;5.47;1.80;;;5.20;99.90;;;;;;5084801;28;20735;-65
2022/01/08 11:24:49;;;;;;;1.88;1.65;;;5.20;99.90;;;;;;5081121;28;20207;-66
2022/01/08 11:27:18;;;;;;;2.42;2.13;;;5.30;99.90;;;;;;5081349;28;20228;-66
2022/01/08 11:29:46;;;;;;;2.00;1.45;;;5.10;99.90;;;;;;5084903;28;20201;-65
2022/01/08 11:32:15;;;;;;;1.20;1.13;;;5.20;99.90;;;;;;5082560;28;20209;-65
2022/01/08 11:34:45;;;;;;;3.15;1.77;;;5.30;99.90;;;;;;5082897;28;20227;-66
2022/01/08 11:37:14;;;;;;;5.68;1.90;;;5.30;99.90;;;;;;5086612;28;20220;-65
2022/01/08 11:39:44;;;;;;;2.35;1.70;;;5.40;99.90;;;;;;5086842;28;20287;-66
2022/01/08 11:42:13;;;;;;;1.58;1.48;;;5.50;99.90;;;;;;5085419;28;20205;-65
2022/01/08 11:44:40;;;;;;;6.50;2.17;;;5.50;99.90;;;;;;5080099;28;20283;-65
2022/01/08 11:47:08;;;;;;;7.43;1.40;;;5.50;99.90;;;;;;5078883;28;20229;-64
2022/01/08 11:49:35;;;;;;;5.82;1.42;;;5.40;99.90;;;;;;5085777;28;20201;-64
2022/01/08 11:52:19;;;;;;;1.38;1.27;;;5.30;99.90;;;;;;5081185;28;20231;-64
2022/01/08 11:54:48;;;;;;;1.85;1.52;;;5.40;99.90;;;;;;5074311;28;20223;-64
2022/01/08 11:57:19;;;;;;;1.15;0.90;;;5.40;99.90;;;;;;5076498;28;20237;-64
2022/01/08 11:59:46;;;;;;;3.60;1.60;;;5.40;99.90;;;;;;5079272;28;20205;-64
2022/01/08 12:02:14;;;;;;;2.38;0.93;;;5.40;99.90;;;;;;5083555;28;20694;-64
2022/01/08 12:04:42;;;;;;;5.38;1.63;;;5.20;99.90;;;;;;5077740;28;20197;-64
2022/01/08 12:07:37;;;;;;;1.95;1.42;;;5.20;99.90;;;;;;5079639;28;20270;-64
2022/01/08 12:10:21;;;;;;;1.40;1.30;;;5.30;99.90;;;;;;5081166;28;20738;-64
2022/01/08 12:12:51;;;;;;;1.60;1.45;;;5.20;99.90;;;;;;5079099;28;20288;-64
2022/01/08 12:15:48;;;;;;;1.50;1.40;;;5.30;99.90;;;;;;5088579;28;20207;-65
2022/01/08 12:18:19;;;;;;;1.77;1.40;;;5.40;99.90;;;;;;5082777;28;20289;-65
2022/01/08 12:20:50;;;;;;;9.82;1.77;;;5.30;99.90;;;;;;5090242;28;20197;-64
2022/01/08 12:23:43;;;;;;;1.90;1.63;;;5.30;99.90;;;;;;5086747;28;20203;-65
2022/01/08 12:26:38;;;;;;;1.60;1.50;;;5.30;99.90;;;;;;5085319;28;20217;-65
2022/01/08 12:29:05;;;;;;;2.30;1.38;;;5.30;99.90;;;;;;5080345;28;20220;-66
2022/01/08 12:31:40;;;;;;;2.40;1.50;;;5.40;99.90;;;;;;5083302;28;20201;-66
2022/01/08 12:34:43;;;;;;;1.80;1.45;;;5.50;99.90;;;;;;5083419;28;20201;-67
2022/01/08 12:37:12;;;;;;;1.38;1.02;;;5.50;99.90;;;;;;5086751;28;20243;-66
2022/01/08 12:39:52;;;;;;;0.88;0.88;;;5.40;99.90;;;;;;5085955;28;20223;-66
2022/01/08 12:42:33;;;;;;;3.88;2.00;;;5.30;99.90;;;;;;5090868;28;20208;-66
2022/01/08 12:45:02;;;;;;;2.60;2.00;;;5.30;99.90;;;;;;5080540;28;20196;-68
2022/01/08 12:47:46;;;;;;;1.88;1.05;;;5.10;99.90;;;;;;5083370;28;20275;-66
2022/01/08 12:50:28;;;;;;;2.15;1.42;;;5.00;99.90;;;;;;5088265;28;20205;-66
2022/01/08 12:53:13;;;;;;;1.33;1.23;;;5.10;99.90;;;;;;5087469;28;20253;-66
2022/01/08 12:55:43;;;;;;;2.38;1.60;;;5.10;99.90;;;;;;5078662;28;20784;-66
2022/01/08 12:58:14;;;;;;;1.35;1.25;;;5.10;99.90;;;;;;5082893;28;20232;-67
2022/01/08 13:00:53;;;;;;;1.58;1.48;;;5.00;99.90;;;;;;5080023;28;20192;-65
2022/01/08 13:03:22;;;;;;;1.95;1.55;;;5.00;99.90;;;;;;5082907;28;20238;-67
2022/01/08 13:05:49;;;;;;;2.42;1.88;;;5.00;99.90;;;;;;5086195;28;20655;-66
2022/01/08 13:08:22;;;;;;;1.30;1.20;;;5.00;99.90;;;;;;5085385;28;20624;-65
2022/01/08 13:10:54;;;;;;;2.00;1.83;;;4.90;99.90;;;;;;5089863;28;20284;-66
2022/01/08 13:13:22;;;;;;;1.73;1.20;;;4.90;99.90;;;;;;5087549;28;20196;-65
2022/01/08 13:15:48;;;;;;;3.80;1.80;;;4.80;99.90;;;;;;5088691;28;20322;-66
2022/01/08 13:18:20;;;;;;;2.03;1.42;;;4.80;99.90;;;;;;5089601;28;20273;-67
2022/01/08 13:20:47;;;;;;;2.13;1.88;;;4.70;99.90;;;;;;5090076;28;20201;-65
2022/01/08 13:23:14;;;;;;;8.68;2.97;;;4.60;99.90;;;;;;5090653;28;20249;-67